createdAt,value
2023-01-04T00:01:36.966Z,20.23
2023-01-04T00:04:05.270Z,16.02
2023-01-04T00:06:34.759Z,14.90
2023-01-04T00:09:02.875Z,16.48
2023-01-04T00:11:30.916Z,15.20
2023-01-04T00:13:59.882Z,13.45
2023-01-04T00:16:29.822Z,14.95
2023-01-04T00:18:58.502Z,15.65
2023-01-04T00:21:30.917Z,15.10
2023-01-04T00:24:02.150Z,15.57
2023-01-04T00:26:32.020Z,14.45
2023-01-04T00:29:02.245Z,14.23
2023-01-04T00:31:31.358Z,14.30
2023-01-04T00:34:01.210Z,13.40
2023-01-04T00:36:30.143Z,16.98
2023-01-04T00:39:11.251Z,15.63
2023-01-04T00:44:29.370Z,14.82
2023-01-04T00:46:58.012Z,15.25
2023-01-04T00:49:26.697Z,16.40
2023-01-04T00:51:54.721Z,17.38
2023-01-04T00:54:24.429Z,16.08
2023-01-04T00:56:52.980Z,16.58
2023-01-04T00:59:22.577Z,15.35
2023-01-04T01:01:51.648Z,17.23
2023-01-04T01:04:21.703Z,16.35
2023-01-04T01:06:51.013Z,16.30
2023-01-04T01:09:22.877Z,18.63
2023-01-04T01:11:53.808Z,16.67
2023-01-04T01:14:24.514Z,16.98
2023-01-04T01:16:55.679Z,19.45
2023-01-04T01:19:24.309Z,17.67
2023-01-04T01:21:52.329Z,19.45
2023-01-04T01:24:21.510Z,16.85
2023-01-04T01:26:49.782Z,18.63
2023-01-04T01:29:19.195Z,17.95
2023-01-04T01:31:47.282Z,18.77
2023-01-04T01:34:15.448Z,19.05
2023-01-04T01:36:43.579Z,18.77
2023-01-04T01:39:11.591Z,18.23
2023-01-04T01:41:39.822Z,16.83
2023-01-04T01:44:23.958Z,20.15
2023-01-04T01:46:55.583Z,19.40
2023-01-04T01:49:28.588Z,18.75
2023-01-04T01:52:00.155Z,21.40
2023-01-04T01:54:33.847Z,19.58
2023-01-04T01:57:05.515Z,19.33
2023-01-04T01:59:37.409Z,20.30
2023-01-04T02:02:06.997Z,19.75
2023-01-04T02:04:37.829Z,20.02
2023-01-04T02:07:06.096Z,21.45
2023-01-04T02:09:35.182Z,20.17
2023-01-04T02:12:03.248Z,18.60
2023-01-04T02:14:31.403Z,20.23
2023-01-04T02:17:10.520Z,21.55
2023-01-04T02:19:55.081Z,19.35
2023-01-04T02:23:19.976Z,23.70
2023-01-04T02:26:18.190Z,20.05
2023-01-04T02:29:06.760Z,20.38
2023-01-04T02:31:42.023Z,22.55
2023-01-04T02:34:17.139Z,22.55
2023-01-04T02:36:55.427Z,19.98
2023-01-04T02:39:43.916Z,21.30
2023-01-04T02:42:20.056Z,22.17
2023-01-04T02:44:54.078Z,21.55
2023-01-04T02:47:45.419Z,19.65
2023-01-04T02:50:34.040Z,20.52
2023-01-04T02:53:06.333Z,23.40
2023-01-04T02:55:48.838Z,21.60
2023-01-04T02:58:33.832Z,22.58
2023-01-04T03:01:27.141Z,20.63
2023-01-04T03:04:25.942Z,20.10
2023-01-04T03:07:02.113Z,20.77
2023-01-04T03:09:35.241Z,23.08
2023-01-04T03:12:24.603Z,25.15
2023-01-04T03:15:00.515Z,20.55
2023-01-04T03:17:33.570Z,22.95
2023-01-04T03:20:03.477Z,22.30
2023-01-04T03:22:54.423Z,22.60
2023-01-04T03:25:46.805Z,25.42
2023-01-04T03:28:35.751Z,24.00
2023-01-04T03:31:26.980Z,22.80
2023-01-04T03:34:13.220Z,27.15
2023-01-04T03:36:57.626Z,25.05
2023-01-04T03:39:53.995Z,27.50
2023-01-04T03:42:43.156Z,24.27
2023-01-04T03:45:34.990Z,28.02
2023-01-04T03:48:27.493Z,25.55
2023-01-04T03:51:02.239Z,27.55
2023-01-04T03:53:34.453Z,27.75
2023-01-04T03:56:03.945Z,25.65
2023-01-04T03:58:32.004Z,25.42
2023-01-04T04:01:04.162Z,24.05
2023-01-04T04:03:50.355Z,26.58
2023-01-04T04:06:36.293Z,24.55
2023-01-04T04:09:05.952Z,28.55
2023-01-04T04:11:34.006Z,27.35
2023-01-04T04:14:02.361Z,24.95
2023-01-04T04:16:30.839Z,33.17
2023-01-04T04:19:03.134Z,27.35
2023-01-04T04:21:34.760Z,28.83
2023-01-04T04:24:02.761Z,28.83
2023-01-04T04:26:32.243Z,30.65
2023-01-04T04:29:00.370Z,29.90
2023-01-04T04:31:28.401Z,28.67
2023-01-04T04:33:56.582Z,32.80
2023-01-04T04:36:24.595Z,27.13
2023-01-04T04:38:52.712Z,29.75
2023-01-04T04:41:38.358Z,30.25
2023-01-04T04:44:08.782Z,33.95
2023-01-04T04:46:37.067Z,25.90
2023-01-04T04:49:05.509Z,30.10
2023-01-04T04:51:33.951Z,29.58
2023-01-04T04:54:02.278Z,27.50
2023-01-04T04:56:30.422Z,29.75
2023-01-04T04:58:58.621Z,29.10
2023-01-04T05:01:28.187Z,24.77
2023-01-04T05:03:56.304Z,35.65
2023-01-04T05:06:24.495Z,44.55
2023-01-04T05:08:52.657Z,35.10
2023-01-04T05:11:40.764Z,37.50
2023-01-04T05:14:08.258Z,35.08
2023-01-04T05:16:37.884Z,33.03
2023-01-04T05:19:06.198Z,34.78
2023-01-04T05:21:34.349Z,32.93
2023-01-04T05:24:02.545Z,35.58
2023-01-04T05:26:30.735Z,35.15
2023-01-04T05:28:58.780Z,38.45
2023-01-04T05:31:26.375Z,31.33
2023-01-04T05:33:55.882Z,36.95
2023-01-04T05:36:24.098Z,32.38
2023-01-04T05:38:52.106Z,33.15
2023-01-04T05:41:37.917Z,29.58
2023-01-04T05:44:06.170Z,25.95
2023-01-04T05:46:34.279Z,28.63
2023-01-04T05:49:03.735Z,23.13
2023-01-04T05:51:31.752Z,24.45
2023-01-04T05:53:59.792Z,22.33
2023-01-04T05:56:27.813Z,21.02
2023-01-04T05:58:55.809Z,24.33
2023-01-04T06:01:23.913Z,24.48
2023-01-04T06:04:18.486Z,27.38
2023-01-04T06:06:46.709Z,24.17
2023-01-04T06:09:14.738Z,28.33
2023-01-04T06:11:42.960Z,28.50
2023-01-04T06:14:13.884Z,27.00
2023-01-04T06:16:41.929Z,21.80
2023-01-04T06:19:10.134Z,25.92
2023-01-04T06:21:39.487Z,23.92
2023-01-04T06:24:07.744Z,20.58
2023-01-04T06:26:35.707Z,22.73
2023-01-04T06:29:03.940Z,22.30
2023-01-04T06:31:35.201Z,21.45
2023-01-04T06:34:04.183Z,23.42
2023-01-04T06:36:32.488Z,21.92
2023-01-04T06:39:02.218Z,20.90
2023-01-04T06:41:30.293Z,24.00
2023-01-04T06:43:58.291Z,23.63
2023-01-04T06:46:26.752Z,22.35
2023-01-04T06:48:54.843Z,22.42
2023-01-04T06:51:23.246Z,24.90
2023-01-04T06:53:51.437Z,23.00
2023-01-04T06:56:21.234Z,20.48
2023-01-04T06:58:49.335Z,22.98
2023-01-04T07:01:17.518Z,23.80
2023-01-04T07:03:45.684Z,26.17
2023-01-04T07:06:13.687Z,25.00
2023-01-04T07:08:41.933Z,23.60
2023-01-04T07:11:09.984Z,20.90
2023-01-04T07:13:39.396Z,22.20
2023-01-04T07:16:08.123Z,29.95
2023-01-04T07:18:42.705Z,23.02
2023-01-04T07:21:10.906Z,29.05
2023-01-04T07:23:39.061Z,25.85
2023-01-04T07:26:07.094Z,33.40
2023-01-04T07:28:52.637Z,27.20
2023-01-04T07:31:22.218Z,26.17
2023-01-04T07:33:56.394Z,28.50
2023-01-04T07:36:24.649Z,23.40
2023-01-04T07:38:52.612Z,22.48
2023-01-04T07:41:20.690Z,23.73
2023-01-04T07:43:48.764Z,25.77
2023-01-04T07:46:27.954Z,20.90
2023-01-04T07:49:01.307Z,27.15
2023-01-04T07:51:39.656Z,25.05
2023-01-04T07:54:11.371Z,22.50
2023-01-04T07:56:41.444Z,18.60
2023-01-04T07:59:11.032Z,20.00
2023-01-04T08:01:39.844Z,20.42
2023-01-04T08:04:10.758Z,18.90
2023-01-04T08:06:39.703Z,16.67
2023-01-04T08:09:08.593Z,20.83
2023-01-04T08:11:37.016Z,29.45
2023-01-04T08:14:05.113Z,20.85
2023-01-04T08:16:35.185Z,24.77
2023-01-04T08:19:05.749Z,35.30
2023-01-04T08:21:36.756Z,25.92
2023-01-04T08:24:06.015Z,25.83
2023-01-04T08:26:34.083Z,22.83
2023-01-04T08:29:02.145Z,23.83
2023-01-04T08:31:32.572Z,23.30
2023-01-04T08:34:04.149Z,32.45
2023-01-04T08:36:45.021Z,20.70
2023-01-04T08:39:13.071Z,20.30
2023-01-04T08:42:06.128Z,18.40
2023-01-04T08:44:39.227Z,19.50
2023-01-04T08:47:07.309Z,17.20
2023-01-04T08:49:35.365Z,19.50
2023-01-04T08:52:04.885Z,16.63
2023-01-04T08:54:33.938Z,19.08
2023-01-04T08:57:01.984Z,18.17
2023-01-04T08:59:30.042Z,16.90
2023-01-04T09:02:04.953Z,16.23
2023-01-04T09:04:34.136Z,15.55
2023-01-04T09:07:02.259Z,16.17
2023-01-04T09:09:32.055Z,16.77
2023-01-04T09:12:00.528Z,17.77
2023-01-04T09:14:28.773Z,19.13
2023-01-04T09:16:56.958Z,17.55
2023-01-04T09:19:24.981Z,20.80
2023-01-04T09:21:53.040Z,19.42
2023-01-04T09:24:21.435Z,21.97
2023-01-04T09:26:51.000Z,19.00
2023-01-04T09:29:19.173Z,17.90
2023-01-04T09:31:47.559Z,20.40
2023-01-04T09:34:17.491Z,16.98
2023-01-04T09:36:46.572Z,14.93
2023-01-04T09:39:21.630Z,16.00
2023-01-04T09:41:56.958Z,15.10
2023-01-04T09:45:12.127Z,14.83
2023-01-04T09:47:31.206Z,16.77
2023-01-04T09:50:03.075Z,16.43
2023-01-04T09:52:44.628Z,13.47
2023-01-04T09:55:39.629Z,15.43
2023-01-04T09:58:21.862Z,15.13
2023-01-04T10:00:54.659Z,13.30
2023-01-04T10:03:26.373Z,13.20
2023-01-04T10:05:56.508Z,13.10
2023-01-04T10:08:25.166Z,14.17
2023-01-04T10:11:06.752Z,12.50
2023-01-04T10:13:48.256Z,13.03
2023-01-04T10:16:44.251Z,12.53
2023-01-04T10:21:08.564Z,15.80
2023-01-04T10:22:18.167Z,13.40
2023-01-04T10:24:57.018Z,12.43
2023-01-04T10:27:37.806Z,16.00
2023-01-04T10:30:30.770Z,14.33
2023-01-04T10:33:11.602Z,15.37
2023-01-04T10:35:41.499Z,15.10
2023-01-04T10:38:16.507Z,14.30
2023-01-04T10:40:46.919Z,15.77
2023-01-04T10:43:23.337Z,13.90
2023-01-04T10:46:01.745Z,11.43
2023-01-04T10:48:39.248Z,12.57
2023-01-04T10:51:13.724Z,12.03
2023-01-04T10:53:45.717Z,12.40
2023-01-04T10:56:25.867Z,13.03
2023-01-04T10:59:04.424Z,13.33
2023-01-04T11:01:38.889Z,12.30
2023-01-04T11:04:14.553Z,13.20
2023-01-04T11:06:47.526Z,15.20
2023-01-04T11:09:24.776Z,11.90
2023-01-04T11:11:56.159Z,11.37
2023-01-04T11:14:25.629Z,13.30
2023-01-04T11:17:00.034Z,11.20
2023-01-04T11:19:29.622Z,10.40
2023-01-04T11:22:01.551Z,12.13
2023-01-04T11:24:33.731Z,12.30
2023-01-04T11:27:07.143Z,11.70
2023-01-04T11:29:41.671Z,10.63
2023-01-04T11:32:19.407Z,10.90
2023-01-04T11:34:52.022Z,11.13
2023-01-04T11:37:29.425Z,9.97
2023-01-04T11:40:20.544Z,11.57
2023-01-04T11:42:50.683Z,11.20
2023-01-04T11:45:21.371Z,10.97
2023-01-04T11:47:53.345Z,10.80
2023-01-04T11:50:40.309Z,11.40
2023-01-04T11:53:27.602Z,11.40
2023-01-04T11:56:14.591Z,11.93
2023-01-04T11:58:44.614Z,11.70
2023-01-04T12:01:24.352Z,13.00
2023-01-04T12:03:53.836Z,9.00
2023-01-04T12:06:28.383Z,10.73
2023-01-04T12:08:56.616Z,11.40
2023-01-04T12:11:29.786Z,12.10
2023-01-04T12:13:59.570Z,10.73
2023-01-04T12:16:46.575Z,11.63
2023-01-04T12:19:17.775Z,12.17
2023-01-04T12:21:48.566Z,11.00
2023-01-04T12:24:20.674Z,13.17
2023-01-04T12:26:50.175Z,11.50
2023-01-04T12:29:42.634Z,12.30
2023-01-04T12:32:43.229Z,12.23
2023-01-04T12:35:44.713Z,11.67
2023-01-04T12:38:14.255Z,12.90
2023-01-04T12:40:56.093Z,12.37
2023-01-04T12:43:28.520Z,12.17
2023-01-04T12:46:52.261Z,14.00
2023-01-04T12:49:51.098Z,13.70
2023-01-04T12:56:01.573Z,12.90
2023-01-04T12:59:27.167Z,12.47
2023-01-04T13:02:16.212Z,10.13
2023-01-04T13:04:44.726Z,13.23
2023-01-04T13:07:19.199Z,11.33
2023-01-04T13:09:59.785Z,13.57
2023-01-04T13:13:09.902Z,14.40
2023-01-04T13:15:50.121Z,11.43
2023-01-04T13:18:40.660Z,13.10
2023-01-04T13:21:14.749Z,12.87
2023-01-04T13:23:50.046Z,13.27
2023-01-04T13:26:34.789Z,13.37
2023-01-04T13:29:13.415Z,14.20
2023-01-04T13:31:53.552Z,12.10
2023-01-04T13:34:25.360Z,13.03
2023-01-04T13:37:21.609Z,15.10
2023-01-04T13:39:51.977Z,13.43
2023-01-04T13:42:26.734Z,15.07
2023-01-04T13:45:20.439Z,12.20
2023-01-04T13:47:52.764Z,13.13
2023-01-04T13:50:34.916Z,13.10
2023-01-04T13:53:07.876Z,13.77
2023-01-04T13:55:38.411Z,11.37
2023-01-04T13:58:08.844Z,14.37
2023-01-04T14:00:45.391Z,13.00
2023-01-04T14:03:26.490Z,12.50
2023-01-04T14:06:02.791Z,11.43
2023-01-04T14:08:36.632Z,12.97
2023-01-04T14:11:15.117Z,13.80
2023-01-04T14:13:47.819Z,11.50
2023-01-04T14:16:16.729Z,10.97
2023-01-04T14:18:46.075Z,14.57
2023-01-04T14:21:18.291Z,12.13
2023-01-04T14:23:46.376Z,11.20
2023-01-04T14:26:33.797Z,11.53
2023-01-04T14:29:22.820Z,12.83
2023-01-04T14:31:52.083Z,12.73
2023-01-04T14:34:21.570Z,13.07
2023-01-04T14:36:49.630Z,12.77
2023-01-04T14:39:29.959Z,12.00
2023-01-04T14:41:59.829Z,12.33
2023-01-04T14:44:30.790Z,12.40
2023-01-04T14:47:00.773Z,11.20
2023-01-04T14:49:31.511Z,12.10
2023-01-04T14:52:01.475Z,10.17
2023-01-04T14:54:31.607Z,11.77
2023-01-04T14:57:00.237Z,11.60
2023-01-04T14:59:28.759Z,10.03
2023-01-04T15:01:58.543Z,12.37
2023-01-04T15:04:26.910Z,12.40
2023-01-04T15:06:58.356Z,13.20
2023-01-04T15:09:27.188Z,10.43
2023-01-04T15:11:55.561Z,13.17
2023-01-04T15:14:24.127Z,13.17
2023-01-04T15:16:52.435Z,12.00
2023-01-04T15:19:20.476Z,10.90
2023-01-04T15:21:48.709Z,9.90
2023-01-04T15:24:18.186Z,12.30
2023-01-04T15:26:46.225Z,10.43
2023-01-04T15:29:14.227Z,11.83
2023-01-04T15:31:43.808Z,10.40
2023-01-04T15:34:12.027Z,12.70
2023-01-04T15:36:41.098Z,13.47
2023-01-04T15:39:11.411Z,14.47
2023-01-04T15:41:58.110Z,13.77
2023-01-04T15:44:26.643Z,13.07
2023-01-04T15:46:55.370Z,16.27
2023-01-04T15:49:23.780Z,14.93
2023-01-04T15:51:52.075Z,16.20
2023-01-04T15:54:21.834Z,14.33
2023-01-04T15:56:51.511Z,16.03
2023-01-04T15:59:19.488Z,17.20
2023-01-04T16:01:47.943Z,18.30
2023-01-04T16:04:16.090Z,14.10
2023-01-04T16:06:44.178Z,16.17
2023-01-04T16:09:12.355Z,18.10
2023-01-04T16:12:01.106Z,13.30
2023-01-04T16:14:30.712Z,17.27
2023-01-04T16:16:58.701Z,20.10
2023-01-04T16:19:27.572Z,18.20
2023-01-04T16:21:56.202Z,15.17
2023-01-04T16:25:00.005Z,18.70
2023-01-04T16:27:12.531Z,16.67
2023-01-04T16:29:42.994Z,14.03
2023-01-04T16:32:11.119Z,14.50
2023-01-04T16:34:39.374Z,14.10
2023-01-04T16:37:07.384Z,15.00
2023-01-04T16:40:05.294Z,15.17
2023-01-04T16:42:23.972Z,14.70
2023-01-04T16:44:53.388Z,16.63
2023-01-04T16:47:21.572Z,14.93
2023-01-04T16:49:52.457Z,16.60
2023-01-04T16:52:20.778Z,16.77
2023-01-04T16:54:51.036Z,13.80
2023-01-04T16:57:19.100Z,18.10
2023-01-04T16:59:47.098Z,12.83
2023-01-04T17:02:16.787Z,14.30
2023-01-04T17:04:44.872Z,25.63
2023-01-04T17:07:12.944Z,18.50
2023-01-04T17:09:41.274Z,13.40
2023-01-04T17:17:47.097Z,15.73
2023-01-04T17:20:15.278Z,13.60
2023-01-04T17:22:43.353Z,13.87
2023-01-04T17:25:12.142Z,13.20
2023-01-04T17:27:40.303Z,11.57
2023-01-04T17:30:09.929Z,13.90
2023-01-04T17:32:37.944Z,12.93
2023-01-04T17:35:07.914Z,14.03
2023-01-04T17:37:35.898Z,14.00
2023-01-04T17:40:08.536Z,13.40
2023-01-04T17:42:36.574Z,16.47
2023-01-04T17:45:05.208Z,13.87
2023-01-04T17:47:33.226Z,15.53
2023-01-04T17:50:01.331Z,13.00
2023-01-04T17:52:31.682Z,13.27
2023-01-04T17:55:00.779Z,15.30
2023-01-04T17:57:31.148Z,15.97
2023-01-04T17:59:59.269Z,13.97
2023-01-04T18:02:27.388Z,14.53
2023-01-04T18:04:55.451Z,13.10
2023-01-04T18:07:25.415Z,14.00
2023-01-04T18:09:55.415Z,16.27
2023-01-04T18:12:23.629Z,16.30
2023-01-04T18:14:51.664Z,18.60
2023-01-04T18:17:19.748Z,18.70
2023-01-04T18:19:47.755Z,15.77
2023-01-04T18:22:15.815Z,16.30
2023-01-04T18:24:43.865Z,17.70
2023-01-04T18:27:24.467Z,15.33
2023-01-04T18:29:54.615Z,12.50
2023-01-04T18:32:22.927Z,11.80
2023-01-04T18:34:50.947Z,13.90
2023-01-04T18:37:19.477Z,13.30
2023-01-04T18:39:47.799Z,14.47
2023-01-04T18:42:17.671Z,16.90
2023-01-04T18:44:49.915Z,18.60
2023-01-04T18:47:19.975Z,15.27
2023-01-04T18:49:48.430Z,15.57
2023-01-04T18:52:16.956Z,15.27
2023-01-04T18:54:45.359Z,15.40
2023-01-04T18:57:13.632Z,14.87
2023-01-04T18:59:43.056Z,20.57
2023-01-04T19:02:17.305Z,15.37
2023-01-04T19:04:45.661Z,14.20
2023-01-04T19:07:13.698Z,12.97
2023-01-04T19:09:42.614Z,11.43
2023-01-04T19:12:12.660Z,13.47
2023-01-04T19:14:42.098Z,12.77
2023-01-04T19:17:10.709Z,12.83
2023-01-04T19:19:38.808Z,10.33
2023-01-04T19:22:06.912Z,10.57
2023-01-04T19:24:35.066Z,11.73
2023-01-04T19:27:05.331Z,13.00
2023-01-04T19:29:35.819Z,14.13
2023-01-04T19:32:05.748Z,14.00
2023-01-04T19:34:33.781Z,11.70
2023-01-04T19:37:01.940Z,12.20
2023-01-04T19:39:29.987Z,14.07
2023-01-04T19:41:58.037Z,12.43
2023-01-04T19:44:26.096Z,14.73
2023-01-04T19:46:54.234Z,13.57
2023-01-04T19:49:23.700Z,13.07
2023-01-04T19:51:51.891Z,14.33
2023-01-04T19:54:25.103Z,14.23
2023-01-04T19:56:54.635Z,14.73
2023-01-04T19:59:23.112Z,15.90
2023-01-04T20:01:51.670Z,16.70
2023-01-04T20:04:20.298Z,19.80
2023-01-04T20:06:50.079Z,13.13
2023-01-04T20:09:25.816Z,14.63
2023-01-04T20:11:54.552Z,14.93
2023-01-04T20:14:23.022Z,14.80
2023-01-04T20:16:51.220Z,16.83
2023-01-04T20:19:19.808Z,14.80
2023-01-04T20:21:49.321Z,17.00
2023-01-04T20:24:17.782Z,15.63
2023-01-04T20:26:48.627Z,15.03
2023-01-04T20:29:16.651Z,16.97
2023-01-04T20:31:45.979Z,15.97
2023-01-04T20:34:14.452Z,15.80
2023-01-04T20:36:42.524Z,9.70
2023-01-04T20:39:12.000Z,10.10
2023-01-04T20:42:03.699Z,5.60
2023-01-04T20:44:30.901Z,3.57
2023-01-04T20:46:58.885Z,1.83
2023-01-04T20:49:26.995Z,1.53
2023-01-04T20:51:55.043Z,1.50
2023-01-04T20:54:24.551Z,1.80
2023-01-04T20:56:52.626Z,1.40
2023-01-04T20:59:20.813Z,1.37
2023-01-04T21:01:48.972Z,2.10
2023-01-04T21:04:17.727Z,1.30
2023-01-04T21:06:45.766Z,1.53
2023-01-04T21:09:13.960Z,1.57
2023-01-04T21:11:43.340Z,2.30
2023-01-04T21:14:12.108Z,1.13
2023-01-04T21:16:41.915Z,1.50
2023-01-04T21:19:10.255Z,1.43
2023-01-04T21:21:38.290Z,1.53
2023-01-04T21:24:06.858Z,10.83
2023-01-04T21:26:34.828Z,1.77
2023-01-04T21:29:04.242Z,1.20
2023-01-04T21:31:32.289Z,1.30
2023-01-04T21:34:00.634Z,2.50
2023-01-04T21:36:29.817Z,1.20
2023-01-04T21:38:59.930Z,1.30
2023-01-04T21:41:29.231Z,1.27
2023-01-04T21:44:00.488Z,1.50
2023-01-04T21:46:32.606Z,2.27
2023-01-04T21:49:03.259Z,1.77
2023-01-04T21:51:33.180Z,1.97
2023-01-04T21:54:03.703Z,1.10
2023-01-04T21:56:32.011Z,1.57
2023-01-04T21:59:00.280Z,1.63
2023-01-04T22:01:34.771Z,1.93
2023-01-04T22:04:03.944Z,1.40
2023-01-04T22:06:33.079Z,2.57
2023-01-04T22:09:01.351Z,1.50
2023-01-04T22:11:29.767Z,1.10
2023-01-04T22:13:57.815Z,1.63
2023-01-04T22:16:25.973Z,1.20
2023-01-04T22:18:55.506Z,0.90
2023-01-04T22:21:24.734Z,1.07
2023-01-04T22:23:52.782Z,1.23
2023-01-04T22:26:21.336Z,1.33
2023-01-04T22:28:49.400Z,1.40
2023-01-04T22:31:17.524Z,1.37
2023-01-04T22:33:45.799Z,1.00
2023-01-04T22:36:22.470Z,1.40
2023-01-04T22:38:52.391Z,2.37
2023-01-04T22:41:22.224Z,1.00
2023-01-04T22:43:55.056Z,1.80
2023-01-04T22:46:31.776Z,1.40
2023-01-04T22:49:01.060Z,2.03
2023-01-04T22:51:31.531Z,3.07
2023-01-04T22:54:01.261Z,1.50
2023-01-04T22:56:29.827Z,1.27
2023-01-04T22:58:59.091Z,0.90
2023-01-04T23:01:29.193Z,1.03
2023-01-04T23:03:58.989Z,1.20
2023-01-04T23:06:29.175Z,1.33
2023-01-04T23:09:00.612Z,1.10
2023-01-04T23:11:30.276Z,1.43
2023-01-04T23:13:59.201Z,1.60
2023-01-04T23:16:32.237Z,1.20
2023-01-04T23:19:01.154Z,0.80
2023-01-04T23:21:29.529Z,1.53
2023-01-04T23:23:59.507Z,1.00
2023-01-04T23:26:29.118Z,0.90
2023-01-04T23:28:57.423Z,2.27
2023-01-04T23:31:27.614Z,1.63
2023-01-04T23:33:57.063Z,1.23
2023-01-04T23:36:27.593Z,1.30
2023-01-04T23:38:58.896Z,1.17
2023-01-04T23:41:44.699Z,2.80
2023-01-04T23:44:18.081Z,1.13
2023-01-04T23:46:47.106Z,1.03
2023-01-04T23:49:15.146Z,1.00
2023-01-04T23:51:43.630Z,6.67
2023-01-04T23:54:13.321Z,1.40
2023-01-04T23:56:41.403Z,1.17
2023-01-04T23:59:09.953Z,1.00
